sensor_id;sensor_type;location;lat;lon;timestamp;temperature;humidity
3001;DHT22;1510;51.072;6.678;2022-11-21T00:01:15;7.10;99.90
3001;DHT22;1510;51.072;6.678;2022-11-21T00:03:42;7.10;99.90
3001;DHT22;1510;51.072;6.678;2022-11-21T00:06:09;7.20;99.90
3001;DHT22;1510;51.072;6.678;2022-11-21T00:08:36;7.10;99.90
3001;DHT22;1510;51.072;6.678;2022-11-21T00:11:04;7.00;99.90
3001;DHT22;1510;51.072;6.678;2022-11-21T00:13:31;7.00;99.90
3001;DHT22;1510;51.072;6.678;2022-11-21T00:16:02;7.00;99.90
3001;DHT22;1510;51.072;6.678;2022-11-21T00:18:29;6.90;99.90
3001;DHT22;1510;51.072;6.678;2022-11-21T00:20:55;6.80;99.90
3001;DHT22;1510;51.072;6.678;2022-11-21T00:23:22;7.00;99.90
3001;DHT22;1510;51.072;6.678;2022-11-21T00:25:52;7.10;99.90
3001;DHT22;1510;51.072;6.678;2022-11-21T00:28:20;6.90;99.90
3001;DHT22;1510;51.072;6.678;2022-11-21T00:30:47;6.80;99.90
3001;DHT22;1510;51.072;6.678;2022-11-21T00:33:14;6.90;99.90
3001;DHT22;1510;51.072;6.678;2022-11-21T00:35:40;6.90;99.90
3001;DHT22;1510;51.072;6.678;2022-11-21T00:38:07;6.80;99.90
3001;DHT22;1510;51.072;6.678;2022-11-21T00:40:34;7.00;99.90
3001;DHT22;1510;51.072;6.678;2022-11-21T00:43:00;6.90;99.90
3001;DHT22;1510;51.072;6.678;2022-11-21T00:45:28;7.00;99.90
3001;DHT22;1510;51.072;6.678;2022-11-21T00:47:55;6.80;99.90
3001;DHT22;1510;51.072;6.678;2022-11-21T00:50:22;6.90;99.90
3001;DHT22;1510;51.072;6.678;2022-11-21T00:52:49;6.80;99.90
3001;DHT22;1510;51.072;6.678;2022-11-21T00:55:19;6.90;99.90
3001;DHT22;1510;51.072;6.678;2022-11-21T00:57:46;6.80;99.90
3001;DHT22;1510;51.072;6.678;2022-11-21T01:00:13;6.80;99.90
3001;DHT22;1510;51.072;6.678;2022-11-21T01:02:42;6.80;99.90
3001;DHT22;1510;51.072;6.678;2022-11-21T01:05:09;6.60;99.90
3001;DHT22;1510;51.072;6.678;2022-11-21T01:07:35;6.80;99.90
3001;DHT22;1510;51.072;6.678;2022-11-21T01:10:03;6.60;99.90
3001;DHT22;1510;51.072;6.678;2022-11-21T01:12:30;6.70;99.90
3001;DHT22;1510;51.072;6.678;2022-11-21T01:14:57;6.70;99.90
3001;DHT22;1510;51.072;6.678;2022-11-21T01:17:23;6.70;99.90
3001;DHT22;1510;51.072;6.678;2022-11-21T01:19:51;6.70;99.90
3001;DHT22;1510;51.072;6.678;2022-11-21T01:22:18;6.70;99.90
3001;DHT22;1510;51.072;6.678;2022-11-21T01:24:45;6.70;99.90
3001;DHT22;1510;51.072;6.678;2022-11-21T01:27:12;6.70;99.90
3001;DHT22;1510;51.072;6.678;2022-11-21T01:29:39;6.60;99.90
3001;DHT22;1510;51.072;6.678;2022-11-21T01:32:06;6.60;99.90
3001;DHT22;1510;51.072;6.678;2022-11-21T01:34:32;6.70;99.90
3001;DHT22;1510;51.072;6.678;2022-11-21T01:37:00;6.70;99.90
3001;DHT22;1510;51.072;6.678;2022-11-21T01:39:27;6.60;99.90
3001;DHT22;1510;51.072;6.678;2022-11-21T01:41:54;6.60;99.90
3001;DHT22;1510;51.072;6.678;2022-11-21T01:44:22;6.60;99.90
3001;DHT22;1510;51.072;6.678;2022-11-21T01:46:50;6.50;99.90
3001;DHT22;1510;51.072;6.678;2022-11-21T01:49:20;6.50;99.90
3001;DHT22;1510;51.072;6.678;2022-11-21T01:51:51;6.40;99.90
3001;DHT22;1510;51.072;6.678;2022-11-21T01:54:24;6.50;99.90
3001;DHT22;1510;51.072;6.678;2022-11-21T01:56:57;6.60;99.90
3001;DHT22;1510;51.072;6.678;2022-11-21T01:59:28;6.40;99.90
3001;DHT22;1510;51.072;6.678;2022-11-21T02:01:56;6.40;99.90
3001;DHT22;1510;51.072;6.678;2022-11-21T02:04:25;6.50;99.90
3001;DHT22;1510;51.072;6.678;2022-11-21T02:06:54;6.50;99.90
3001;DHT22;1510;51.072;6.678;2022-11-21T02:09:22;6.50;99.90
3001;DHT22;1510;51.072;6.678;2022-11-21T02:11:53;6.60;99.90
3001;DHT22;1510;51.072;6.678;2022-11-21T02:14:21;6.50;99.90
3001;DHT22;1510;51.072;6.678;2022-11-21T02:16:48;6.40;99.90
3001;DHT22;1510;51.072;6.678;2022-11-21T02:19:21;6.50;99.90
3001;DHT22;1510;51.072;6.678;2022-11-21T02:21:56;6.40;99.90
3001;DHT22;1510;51.072;6.678;2022-11-21T02:24:29;6.50;99.90
3001;DHT22;1510;51.072;6.678;2022-11-21T02:27:02;6.50;99.90
3001;DHT22;1510;51.072;6.678;2022-11-21T02:29:29;6.50;99.90
3001;DHT22;1510;51.072;6.678;2022-11-21T02:31:58;6.40;99.90
3001;DHT22;1510;51.072;6.678;2022-11-21T02:34:25;6.40;99.90
3001;DHT22;1510;51.072;6.678;2022-11-21T02:36:52;6.30;99.90
3001;DHT22;1510;51.072;6.678;2022-11-21T02:39:22;6.30;99.90
3001;DHT22;1510;51.072;6.678;2022-11-21T02:41:56;6.30;99.90
3001;DHT22;1510;51.072;6.678;2022-11-21T02:44:28;6.30;99.90
3001;DHT22;1510;51.072;6.678;2022-11-21T02:46:58;6.40;99.90
3001;DHT22;1510;51.072;6.678;2022-11-21T02:49:31;6.40;99.90
3001;DHT22;1510;51.072;6.678;2022-11-21T02:52:00;6.40;99.90
3001;DHT22;1510;51.072;6.678;2022-11-21T02:54:26;6.30;99.90
3001;DHT22;1510;51.072;6.678;2022-11-21T02:56:53;6.20;99.90
3001;DHT22;1510;51.072;6.678;2022-11-21T02:59:20;6.30;99.90
3001;DHT22;1510;51.072;6.678;2022-11-21T03:01:49;6.40;99.90
3001;DHT22;1510;51.072;6.678;2022-11-21T03:04:15;6.30;99.90
3001;DHT22;1510;51.072;6.678;2022-11-21T03:06:42;6.30;99.90
3001;DHT22;1510;51.072;6.678;2022-11-21T03:09:09;6.30;99.90
3001;DHT22;1510;51.072;6.678;2022-11-21T03:11:37;6.30;99.90
3001;DHT22;1510;51.072;6.678;2022-11-21T03:14:03;6.30;99.90
3001;DHT22;1510;51.072;6.678;2022-11-21T03:16:30;6.30;99.90
3001;DHT22;1510;51.072;6.678;2022-11-21T03:18:58;6.30;99.90
3001;DHT22;1510;51.072;6.678;2022-11-21T03:21:25;6.40;99.90
3001;DHT22;1510;51.072;6.678;2022-11-21T03:23:51;6.30;99.90
3001;DHT22;1510;51.072;6.678;2022-11-21T03:26:19;6.30;99.90
3001;DHT22;1510;51.072;6.678;2022-11-21T03:28:45;6.30;99.90
3001;DHT22;1510;51.072;6.678;2022-11-21T03:31:12;6.20;99.90
3001;DHT22;1510;51.072;6.678;2022-11-21T03:33:39;6.30;99.90
3001;DHT22;1510;51.072;6.678;2022-11-21T03:36:07;6.30;99.90
3001;DHT22;1510;51.072;6.678;2022-11-21T03:38:34;6.30;99.90
3001;DHT22;1510;51.072;6.678;2022-11-21T03:41:03;6.40;99.90
3001;DHT22;1510;51.072;6.678;2022-11-21T03:43:30;6.20;99.90
3001;DHT22;1510;51.072;6.678;2022-11-21T03:45:56;6.30;99.90
3001;DHT22;1510;51.072;6.678;2022-11-21T03:48:23;6.30;99.90
3001;DHT22;1510;51.072;6.678;2022-11-21T03:50:50;6.20;99.90
3001;DHT22;1510;51.072;6.678;2022-11-21T03:53:18;6.20;99.90
3001;DHT22;1510;51.072;6.678;2022-11-21T03:55:44;6.20;99.90
3001;DHT22;1510;51.072;6.678;2022-11-21T03:58:11;6.20;99.90
3001;DHT22;1510;51.072;6.678;2022-11-21T04:00:38;6.20;99.90
3001;DHT22;1510;51.072;6.678;2022-11-21T04:03:04;6.10;99.90
3001;DHT22;1510;51.072;6.678;2022-11-21T04:05:31;6.20;99.90
3001;DHT22;1510;51.072;6.678;2022-11-21T04:07:58;6.10;99.90
3001;DHT22;1510;51.072;6.678;2022-11-21T04:10:26;6.20;99.90
3001;DHT22;1510;51.072;6.678;2022-11-21T04:12:52;6.10;99.90
3001;DHT22;1510;51.072;6.678;2022-11-21T04:15:19;6.10;99.90
3001;DHT22;1510;51.072;6.678;2022-11-21T04:17:46;6.10;99.90
3001;DHT22;1510;51.072;6.678;2022-11-21T04:20:13;6.00;99.90
3001;DHT22;1510;51.072;6.678;2022-11-21T04:22:41;6.00;99.90
3001;DHT22;1510;51.072;6.678;2022-11-21T04:25:08;5.90;99.90
3001;DHT22;1510;51.072;6.678;2022-11-21T04:27:36;5.90;99.90
3001;DHT22;1510;51.072;6.678;2022-11-21T04:30:04;5.90;99.90
3001;DHT22;1510;51.072;6.678;2022-11-21T04:32:31;5.90;99.90
3001;DHT22;1510;51.072;6.678;2022-11-21T04:34:57;6.00;99.90
3001;DHT22;1510;51.072;6.678;2022-11-21T04:37:24;6.00;99.90
3001;DHT22;1510;51.072;6.678;2022-11-21T04:39:51;6.10;99.90
3001;DHT22;1510;51.072;6.678;2022-11-21T04:42:17;6.00;99.90
3001;DHT22;1510;51.072;6.678;2022-11-21T04:44:45;6.10;99.90
3001;DHT22;1510;51.072;6.678;2022-11-21T04:47:12;6.20;99.90
3001;DHT22;1510;51.072;6.678;2022-11-21T04:49:39;6.10;99.90
3001;DHT22;1510;51.072;6.678;2022-11-21T04:52:05;6.20;99.90
3001;DHT22;1510;51.072;6.678;2022-11-21T04:54:32;6.20;99.90
3001;DHT22;1510;51.072;6.678;2022-11-21T04:56:59;6.20;99.90
3001;DHT22;1510;51.072;6.678;2022-11-21T04:59:26;6.20;99.90
3001;DHT22;1510;51.072;6.678;2022-11-21T05:01:54;6.30;99.90
3001;DHT22;1510;51.072;6.678;2022-11-21T05:04:21;6.20;99.90
3001;DHT22;1510;51.072;6.678;2022-11-21T05:06:48;6.30;99.90
3001;DHT22;1510;51.072;6.678;2022-11-21T05:09:15;6.30;99.90
3001;DHT22;1510;51.072;6.678;2022-11-21T05:11:41;6.30;99.90
3001;DHT22;1510;51.072;6.678;2022-11-21T05:14:25;6.40;99.90
3001;DHT22;1510;51.072;6.678;2022-11-21T05:16:52;6.30;99.90
3001;DHT22;1510;51.072;6.678;2022-11-21T05:19:20;6.20;99.90
3001;DHT22;1510;51.072;6.678;2022-11-21T05:21:47;6.20;99.90
3001;DHT22;1510;51.072;6.678;2022-11-21T05:24:15;6.20;99.90
3001;DHT22;1510;51.072;6.678;2022-11-21T05:26:41;6.20;99.90
3001;DHT22;1510;51.072;6.678;2022-11-21T05:29:08;6.30;99.90
3001;DHT22;1510;51.072;6.678;2022-11-21T05:31:35;6.30;99.90
3001;DHT22;1510;51.072;6.678;2022-11-21T05:34:01;6.20;99.90
3001;DHT22;1510;51.072;6.678;2022-11-21T05:36:29;6.30;99.90
3001;DHT22;1510;51.072;6.678;2022-11-21T05:38:56;6.40;99.90
3001;DHT22;1510;51.072;6.678;2022-11-21T05:41:23;6.30;99.90
3001;DHT22;1510;51.072;6.678;2022-11-21T05:43:50;6.30;99.90
3001;DHT22;1510;51.072;6.678;2022-11-21T05:46:17;6.30;99.90
3001;DHT22;1510;51.072;6.678;2022-11-21T05:48:45;6.30;99.90
3001;DHT22;1510;51.072;6.678;2022-11-21T05:51:13;6.40;99.90
3001;DHT22;1510;51.072;6.678;2022-11-21T05:53:41;6.30;99.90
3001;DHT22;1510;51.072;6.678;2022-11-21T05:56:09;6.30;99.90
3001;DHT22;1510;51.072;6.678;2022-11-21T05:58:37;6.40;99.90
3001;DHT22;1510;51.072;6.678;2022-11-21T06:01:05;6.40;99.90
3001;DHT22;1510;51.072;6.678;2022-11-21T06:03:34;6.50;99.90
3001;DHT22;1510;51.072;6.678;2022-11-21T06:06:04;6.40;99.90
3001;DHT22;1510;51.072;6.678;2022-11-21T06:08:33;6.40;99.90
3001;DHT22;1510;51.072;6.678;2022-11-21T06:11:01;6.40;99.90
3001;DHT22;1510;51.072;6.678;2022-11-21T06:13:28;6.40;99.90
3001;DHT22;1510;51.072;6.678;2022-11-21T06:15:59;6.30;99.90
3001;DHT22;1510;51.072;6.678;2022-11-21T06:18:31;6.40;99.90
3001;DHT22;1510;51.072;6.678;2022-11-21T06:21:01;6.50;99.90
3001;DHT22;1510;51.072;6.678;2022-11-21T06:23:28;6.40;99.90
3001;DHT22;1510;51.072;6.678;2022-11-21T06:25:56;6.40;99.90
3001;DHT22;1510;51.072;6.678;2022-11-21T06:28:25;6.40;99.90
3001;DHT22;1510;51.072;6.678;2022-11-21T06:30:52;6.50;99.90
3001;DHT22;1510;51.072;6.678;2022-11-21T06:33:19;6.50;99.90
3001;DHT22;1510;51.072;6.678;2022-11-21T06:35:46;6.40;99.90
3001;DHT22;1510;51.072;6.678;2022-11-21T06:38:12;6.40;99.90
3001;DHT22;1510;51.072;6.678;2022-11-21T06:40:43;6.40;99.90
3001;DHT22;1510;51.072;6.678;2022-11-21T06:43:09;6.40;99.90
3001;DHT22;1510;51.072;6.678;2022-11-21T06:45:37;6.40;99.90
3001;DHT22;1510;51.072;6.678;2022-11-21T06:48:05;6.40;99.90
3001;DHT22;1510;51.072;6.678;2022-11-21T06:50:31;6.50;99.90
3001;DHT22;1510;51.072;6.678;2022-11-21T06:52:58;6.40;99.90
3001;DHT22;1510;51.072;6.678;2022-11-21T06:55:26;6.40;99.90
3001;DHT22;1510;51.072;6.678;2022-11-21T06:57:56;6.40;99.90
3001;DHT22;1510;51.072;6.678;2022-11-21T07:00:24;6.40;99.90
3001;DHT22;1510;51.072;6.678;2022-11-21T07:02:53;6.40;99.90
3001;DHT22;1510;51.072;6.678;2022-11-21T07:05:20;6.40;99.90
3001;DHT22;1510;51.072;6.678;2022-11-21T07:07:47;6.30;99.90
3001;DHT22;1510;51.072;6.678;2022-11-21T07:10:14;6.30;99.90
3001;DHT22;1510;51.072;6.678;2022-11-21T07:12:40;6.30;99.90
3001;DHT22;1510;51.072;6.678;2022-11-21T07:15:24;6.20;99.90
3001;DHT22;1510;51.072;6.678;2022-11-21T07:17:52;6.20;99.90
3001;DHT22;1510;51.072;6.678;2022-11-21T07:20:19;6.30;99.90
3001;DHT22;1510;51.072;6.678;2022-11-21T07:22:46;6.20;99.90
3001;DHT22;1510;51.072;6.678;2022-11-21T07:25:13;6.30;99.90
3001;DHT22;1510;51.072;6.678;2022-11-21T07:27:40;6.20;99.90
3001;DHT22;1510;51.072;6.678;2022-11-21T07:30:08;6.20;99.90
3001;DHT22;1510;51.072;6.678;2022-11-21T07:32:35;6.30;99.90
3001;DHT22;1510;51.072;6.678;2022-11-21T07:35:03;6.30;99.90
3001;DHT22;1510;51.072;6.678;2022-11-21T07:37:30;6.20;99.90
3001;DHT22;1510;51.072;6.678;2022-11-21T07:39:56;6.20;99.90
3001;DHT22;1510;51.072;6.678;2022-11-21T07:42:23;6.20;99.90
3001;DHT22;1510;51.072;6.678;2022-11-21T07:44:50;6.30;99.90
3001;DHT22;1510;51.072;6.678;2022-11-21T07:47:17;6.30;99.90
3001;DHT22;1510;51.072;6.678;2022-11-21T07:49:43;6.40;99.90
3001;DHT22;1510;51.072;6.678;2022-11-21T07:52:11;6.30;99.90
3001;DHT22;1510;51.072;6.678;2022-11-21T07:54:38;6.30;99.90
3001;DHT22;1510;51.072;6.678;2022-11-21T07:57:05;6.40;99.90
3001;DHT22;1510;51.072;6.678;2022-11-21T07:59:32;6.20;99.90
3001;DHT22;1510;51.072;6.678;2022-11-21T08:01:58;6.40;99.90
3001;DHT22;1510;51.072;6.678;2022-11-21T08:04:25;6.40;99.90
3001;DHT22;1510;51.072;6.678;2022-11-21T08:06:53;6.50;99.90
3001;DHT22;1510;51.072;6.678;2022-11-21T08:09:22;6.40;99.90
3001;DHT22;1510;51.072;6.678;2022-11-21T08:11:52;6.50;99.90
3001;DHT22;1510;51.072;6.678;2022-11-21T08:14:19;6.50;99.90
3001;DHT22;1510;51.072;6.678;2022-11-21T08:16:46;6.60;99.90
3001;DHT22;1510;51.072;6.678;2022-11-21T08:19:13;6.60;99.90
3001;DHT22;1510;51.072;6.678;2022-11-21T08:21:40;6.50;99.90
3001;DHT22;1510;51.072;6.678;2022-11-21T08:24:07;6.60;99.90
3001;DHT22;1510;51.072;6.678;2022-11-21T08:26:39;6.50;99.90
3001;DHT22;1510;51.072;6.678;2022-11-21T08:29:06;6.60;99.90
3001;DHT22;1510;51.072;6.678;2022-11-21T08:31:33;6.60;99.90
3001;DHT22;1510;51.072;6.678;2022-11-21T08:34:00;6.60;99.90
3001;DHT22;1510;51.072;6.678;2022-11-21T08:36:27;6.70;99.90
3001;DHT22;1510;51.072;6.678;2022-11-21T08:38:54;6.90;99.90
3001;DHT22;1510;51.072;6.678;2022-11-21T08:41:20;6.70;99.90
3001;DHT22;1510;51.072;6.678;2022-11-21T08:44:06;6.80;99.90
3001;DHT22;1510;51.072;6.678;2022-11-21T08:46:33;6.90;99.90
3001;DHT22;1510;51.072;6.678;2022-11-21T08:49:01;6.90;99.90
3001;DHT22;1510;51.072;6.678;2022-11-21T08:51:28;7.00;99.90
3001;DHT22;1510;51.072;6.678;2022-11-21T08:53:55;7.00;99.90
3001;DHT22;1510;51.072;6.678;2022-11-21T08:56:22;7.10;99.90
3001;DHT22;1510;51.072;6.678;2022-11-21T08:58:49;7.20;99.90
3001;DHT22;1510;51.072;6.678;2022-11-21T09:01:17;7.20;99.90
3001;DHT22;1510;51.072;6.678;2022-11-21T09:03:44;7.20;99.90
3001;DHT22;1510;51.072;6.678;2022-11-21T09:06:11;7.20;99.90
3001;DHT22;1510;51.072;6.678;2022-11-21T09:08:37;7.30;99.90
3001;DHT22;1510;51.072;6.678;2022-11-21T09:11:05;7.30;99.90
3001;DHT22;1510;51.072;6.678;2022-11-21T09:13:32;7.50;99.90
3001;DHT22;1510;51.072;6.678;2022-11-21T09:16:00;7.50;99.90
3001;DHT22;1510;51.072;6.678;2022-11-21T09:18:46;7.70;99.90
3001;DHT22;1510;51.072;6.678;2022-11-21T09:21:13;7.80;99.90
3001;DHT22;1510;51.072;6.678;2022-11-21T09:23:41;7.90;99.90
3001;DHT22;1510;51.072;6.678;2022-11-21T09:26:08;7.70;99.90
3001;DHT22;1510;51.072;6.678;2022-11-21T09:28:35;7.60;99.90
3001;DHT22;1510;51.072;6.678;2022-11-21T09:31:02;7.60;99.90
3001;DHT22;1510;51.072;6.678;2022-11-21T09:33:29;7.50;99.90
3001;DHT22;1510;51.072;6.678;2022-11-21T09:35:58;7.40;99.90
3001;DHT22;1510;51.072;6.678;2022-11-21T09:38:25;7.30;99.90
3001;DHT22;1510;51.072;6.678;2022-11-21T09:40:59;7.30;99.90
3001;DHT22;1510;51.072;6.678;2022-11-21T09:43:54;7.30;99.90
3001;DHT22;1510;51.072;6.678;2022-11-21T09:46:28;7.10;99.90
3001;DHT22;1510;51.072;6.678;2022-11-21T09:48:59;7.20;99.90
3001;DHT22;1510;51.072;6.678;2022-11-21T09:51:30;7.00;99.90
3001;DHT22;1510;51.072;6.678;2022-11-21T09:53:59;7.00;99.90
3001;DHT22;1510;51.072;6.678;2022-11-21T09:56:29;7.20;99.90
3001;DHT22;1510;51.072;6.678;2022-11-21T09:59:06;7.10;99.90
3001;DHT22;1510;51.072;6.678;2022-11-21T10:01:37;7.00;99.90
3001;DHT22;1510;51.072;6.678;2022-11-21T10:04:04;7.00;99.90
3001;DHT22;1510;51.072;6.678;2022-11-21T10:06:37;6.80;99.90
3001;DHT22;1510;51.072;6.678;2022-11-21T10:09:10;6.90;99.90
3001;DHT22;1510;51.072;6.678;2022-11-21T10:11:45;6.90;99.90
3001;DHT22;1510;51.072;6.678;2022-11-21T10:14:44;6.90;99.90
3001;DHT22;1510;51.072;6.678;2022-11-21T10:17:21;7.10;99.90
3001;DHT22;1510;51.072;6.678;2022-11-21T10:20:12;7.10;99.90
3001;DHT22;1510;51.072;6.678;2022-11-21T10:23:01;7.00;99.90
3001;DHT22;1510;51.072;6.678;2022-11-21T10:25:36;7.10;99.90
3001;DHT22;1510;51.072;6.678;2022-11-21T10:28:08;7.00;99.90
3001;DHT22;1510;51.072;6.678;2022-11-21T10:30:39;7.10;99.90
3001;DHT22;1510;51.072;6.678;2022-11-21T10:33:13;7.00;99.90
3001;DHT22;1510;51.072;6.678;2022-11-21T10:35:43;7.00;99.90
3001;DHT22;1510;51.072;6.678;2022-11-21T10:38:19;7.00;99.90
3001;DHT22;1510;51.072;6.678;2022-11-21T10:40:49;7.20;99.90
3001;DHT22;1510;51.072;6.678;2022-11-21T10:43:24;7.10;99.90
3001;DHT22;1510;51.072;6.678;2022-11-21T10:46:11;7.30;99.90
3001;DHT22;1510;51.072;6.678;2022-11-21T10:48:38;7.30;99.90
3001;DHT22;1510;51.072;6.678;2022-11-21T10:51:18;7.30;99.90
3001;DHT22;1510;51.072;6.678;2022-11-21T10:53:47;7.40;99.90
3001;DHT22;1510;51.072;6.678;2022-11-21T10:56:45;7.60;99.90
3001;DHT22;1510;51.072;6.678;2022-11-21T10:59:21;7.50;99.90
3001;DHT22;1510;51.072;6.678;2022-11-21T11:01:54;7.60;99.90
3001;DHT22;1510;51.072;6.678;2022-11-21T11:04:21;7.70;99.90
3001;DHT22;1510;51.072;6.678;2022-11-21T11:06:48;7.80;99.90
3001;DHT22;1510;51.072;6.678;2022-11-21T11:09:30;7.90;99.90
3001;DHT22;1510;51.072;6.678;2022-11-21T11:15:21;8.70;99.90
3001;DHT22;1510;51.072;6.678;2022-11-21T11:17:51;8.90;99.90
3001;DHT22;1510;51.072;6.678;2022-11-21T11:20:38;9.30;99.90
3001;DHT22;1510;51.072;6.678;2022-11-21T11:23:24;10.00;99.90
3001;DHT22;1510;51.072;6.678;2022-11-21T11:25:54;10.60;99.90
3001;DHT22;1510;51.072;6.678;2022-11-21T11:28:22;11.30;99.90
3001;DHT22;1510;51.072;6.678;2022-11-21T11:30:51;11.40;99.90
3001;DHT22;1510;51.072;6.678;2022-11-21T11:33:35;11.90;99.90
3001;DHT22;1510;51.072;6.678;2022-11-21T11:36:13;12.00;99.90
3001;DHT22;1510;51.072;6.678;2022-11-21T11:38:44;12.20;99.90
3001;DHT22;1510;51.072;6.678;2022-11-21T11:41:21;12.50;99.90
3001;DHT22;1510;51.072;6.678;2022-11-21T11:43:58;12.40;99.90
3001;DHT22;1510;51.072;6.678;2022-11-21T11:46:54;12.70;99.90
3001;DHT22;1510;51.072;6.678;2022-11-21T11:49:45;12.60;99.90
3001;DHT22;1510;51.072;6.678;2022-11-21T11:52:34;13.10;99.90
3001;DHT22;1510;51.072;6.678;2022-11-21T11:55:14;13.60;99.90
3001;DHT22;1510;51.072;6.678;2022-11-21T11:57:44;13.00;99.90
3001;DHT22;1510;51.072;6.678;2022-11-21T12:00:25;12.70;99.90
3001;DHT22;1510;51.072;6.678;2022-11-21T12:02:57;12.60;99.90
3001;DHT22;1510;51.072;6.678;2022-11-21T12:05:27;12.30;99.90
3001;DHT22;1510;51.072;6.678;2022-11-21T12:08:05;12.20;99.90
3001;DHT22;1510;51.072;6.678;2022-11-21T12:10:39;12.00;99.90
3001;DHT22;1510;51.072;6.678;2022-11-21T12:13:25;11.20;99.90
3001;DHT22;1510;51.072;6.678;2022-11-21T12:15:54;11.30;99.90
3001;DHT22;1510;51.072;6.678;2022-11-21T12:18:30;11.20;99.90
3001;DHT22;1510;51.072;6.678;2022-11-21T12:21:03;12.00;99.90
3001;DHT22;1510;51.072;6.678;2022-11-21T12:23:35;12.30;99.90
3001;DHT22;1510;51.072;6.678;2022-11-21T12:26:30;12.30;99.90
3001;DHT22;1510;51.072;6.678;2022-11-21T12:29:08;11.90;99.90
3001;DHT22;1510;51.072;6.678;2022-11-21T12:31:50;11.40;99.90
3001;DHT22;1510;51.072;6.678;2022-11-21T12:34:30;11.00;99.90
3001;DHT22;1510;51.072;6.678;2022-11-21T12:37:03;11.00;99.90
3001;DHT22;1510;51.072;6.678;2022-11-21T12:39:51;10.90;99.90
3001;DHT22;1510;51.072;6.678;2022-11-21T12:42:27;10.90;99.90
3001;DHT22;1510;51.072;6.678;2022-11-21T12:45:34;10.90;99.90
3001;DHT22;1510;51.072;6.678;2022-11-21T12:48:20;11.00;99.90
3001;DHT22;1510;51.072;6.678;2022-11-21T12:51:19;11.10;99.90
3001;DHT22;1510;51.072;6.678;2022-11-21T12:54:18;11.00;99.90
3001;DHT22;1510;51.072;6.678;2022-11-21T12:57:11;11.20;99.90
3001;DHT22;1510;51.072;6.678;2022-11-21T12:59:49;11.20;99.90
3001;DHT22;1510;51.072;6.678;2022-11-21T13:02:41;11.20;99.90
3001;DHT22;1510;51.072;6.678;2022-11-21T13:05:17;11.00;99.90
3001;DHT22;1510;51.072;6.678;2022-11-21T13:07:47;10.70;99.90
3001;DHT22;1510;51.072;6.678;2022-11-21T13:10:15;10.50;99.90
3001;DHT22;1510;51.072;6.678;2022-11-21T13:12:46;10.30;99.90
3001;DHT22;1510;51.072;6.678;2022-11-21T13:15:20;10.10;99.90
3001;DHT22;1510;51.072;6.678;2022-11-21T13:17:52;10.00;99.90
3001;DHT22;1510;51.072;6.678;2022-11-21T13:20:23;9.80;99.90
3001;DHT22;1510;51.072;6.678;2022-11-21T13:22:59;9.70;99.90
3001;DHT22;1510;51.072;6.678;2022-11-21T13:25:42;9.60;99.90
3001;DHT22;1510;51.072;6.678;2022-11-21T13:28:44;9.60;99.90
3001;DHT22;1510;51.072;6.678;2022-11-21T13:31:29;9.50;99.90
3001;DHT22;1510;51.072;6.678;2022-11-21T13:33:58;9.40;99.90
3001;DHT22;1510;51.072;6.678;2022-11-21T13:36:41;9.40;99.90
3001;DHT22;1510;51.072;6.678;2022-11-21T13:39:24;9.50;99.90
3001;DHT22;1510;51.072;6.678;2022-11-21T13:42:07;9.40;99.90
3001;DHT22;1510;51.072;6.678;2022-11-21T13:44:52;9.40;99.90
3001;DHT22;1510;51.072;6.678;2022-11-21T13:50:26;9.20;99.90
3001;DHT22;1510;51.072;6.678;2022-11-21T13:53:05;9.20;99.90
3001;DHT22;1510;51.072;6.678;2022-11-21T13:55:47;9.10;99.90
3001;DHT22;1510;51.072;6.678;2022-11-21T13:58:29;9.00;99.90
3001;DHT22;1510;51.072;6.678;2022-11-21T14:01:26;9.00;99.90
3001;DHT22;1510;51.072;6.678;2022-11-21T14:04:22;8.80;99.90
3001;DHT22;1510;51.072;6.678;2022-11-21T14:06:53;8.80;99.90
3001;DHT22;1510;51.072;6.678;2022-11-21T14:09:22;8.70;99.90
3001;DHT22;1510;51.072;6.678;2022-11-21T14:11:53;8.60;99.90
3001;DHT22;1510;51.072;6.678;2022-11-21T14:14:33;8.60;99.90
3001;DHT22;1510;51.072;6.678;2022-11-21T14:17:16;8.50;99.90
3001;DHT22;1510;51.072;6.678;2022-11-21T14:19:46;8.50;99.90
3001;DHT22;1510;51.072;6.678;2022-11-21T14:22:23;8.40;99.90
3001;DHT22;1510;51.072;6.678;2022-11-21T14:24:51;8.30;99.90
3001;DHT22;1510;51.072;6.678;2022-11-21T14:27:25;8.30;99.90
3001;DHT22;1510;51.072;6.678;2022-11-21T14:29:53;8.30;99.90
3001;DHT22;1510;51.072;6.678;2022-11-21T14:32:25;8.10;99.90
3001;DHT22;1510;51.072;6.678;2022-11-21T14:34:52;8.00;99.90
3001;DHT22;1510;51.072;6.678;2022-11-21T14:37:33;7.90;99.90
3001;DHT22;1510;51.072;6.678;2022-11-21T14:40:02;7.90;99.90
3001;DHT22;1510;51.072;6.678;2022-11-21T14:42:34;7.70;99.90
3001;DHT22;1510;51.072;6.678;2022-11-21T14:45:13;7.70;99.90
3001;DHT22;1510;51.072;6.678;2022-11-21T14:47:45;7.60;99.90
3001;DHT22;1510;51.072;6.678;2022-11-21T14:50:22;7.50;99.90
3001;DHT22;1510;51.072;6.678;2022-11-21T14:52:50;7.40;99.90
3001;DHT22;1510;51.072;6.678;2022-11-21T14:55:24;7.40;99.90
3001;DHT22;1510;51.072;6.678;2022-11-21T14:57:52;7.20;99.90
3001;DHT22;1510;51.072;6.678;2022-11-21T15:00:21;7.20;99.90
3001;DHT22;1510;51.072;6.678;2022-11-21T15:02:51;7.10;99.90
3001;DHT22;1510;51.072;6.678;2022-11-21T15:05:19;7.10;99.90
3001;DHT22;1510;51.072;6.678;2022-11-21T15:07:49;7.20;99.90
3001;DHT22;1510;51.072;6.678;2022-11-21T15:10:17;7.20;99.90
3001;DHT22;1510;51.072;6.678;2022-11-21T15:12:49;7.10;99.90
3001;DHT22;1510;51.072;6.678;2022-11-21T15:15:26;7.10;99.90
3001;DHT22;1510;51.072;6.678;2022-11-21T15:17:57;7.10;99.90
3001;DHT22;1510;51.072;6.678;2022-11-21T15:20:25;7.10;99.90
3001;DHT22;1510;51.072;6.678;2022-11-21T15:22:56;7.20;99.90
3001;DHT22;1510;51.072;6.678;2022-11-21T15:25:28;7.10;99.90
3001;DHT22;1510;51.072;6.678;2022-11-21T15:28:07;7.10;99.90
3001;DHT22;1510;51.072;6.678;2022-11-21T15:30:35;7.00;99.90
3001;DHT22;1510;51.072;6.678;2022-11-21T15:33:07;7.10;99.90
3001;DHT22;1510;51.072;6.678;2022-11-21T15:35:53;6.90;99.90
3001;DHT22;1510;51.072;6.678;2022-11-21T15:38:30;7.00;99.90
3001;DHT22;1510;51.072;6.678;2022-11-21T15:41:03;7.00;99.90
3001;DHT22;1510;51.072;6.678;2022-11-21T15:43:44;6.80;99.90
3001;DHT22;1510;51.072;6.678;2022-11-21T15:48:45;6.80;99.90
3001;DHT22;1510;51.072;6.678;2022-11-21T15:51:12;6.70;99.90
3001;DHT22;1510;51.072;6.678;2022-11-21T15:53:41;6.70;99.90
3001;DHT22;1510;51.072;6.678;2022-11-21T15:56:10;6.70;99.90
3001;DHT22;1510;51.072;6.678;2022-11-21T15:58:37;6.80;99.90
3001;DHT22;1510;51.072;6.678;2022-11-21T16:01:04;6.70;99.90
3001;DHT22;1510;51.072;6.678;2022-11-21T16:03:31;6.70;99.90
3001;DHT22;1510;51.072;6.678;2022-11-21T16:05:58;6.60;99.90
3001;DHT22;1510;51.072;6.678;2022-11-21T16:08:24;6.60;99.90
3001;DHT22;1510;51.072;6.678;2022-11-21T16:10:52;6.70;99.90
3001;DHT22;1510;51.072;6.678;2022-11-21T16:13:19;6.60;99.90
3001;DHT22;1510;51.072;6.678;2022-11-21T16:15:46;6.70;99.90
3001;DHT22;1510;51.072;6.678;2022-11-21T16:18:12;6.70;99.90
3001;DHT22;1510;51.072;6.678;2022-11-21T16:20:39;6.70;99.90
3001;DHT22;1510;51.072;6.678;2022-11-21T16:23:08;6.70;99.90
3001;DHT22;1510;51.072;6.678;2022-11-21T16:25:36;6.80;99.90
3001;DHT22;1510;51.072;6.678;2022-11-21T16:28:05;6.80;99.90
3001;DHT22;1510;51.072;6.678;2022-11-21T16:30:32;6.70;99.90
3001;DHT22;1510;51.072;6.678;2022-11-21T16:33:00;6.90;99.90
3001;DHT22;1510;51.072;6.678;2022-11-21T16:35:27;6.90;99.90
3001;DHT22;1510;51.072;6.678;2022-11-21T16:37:54;6.80;99.90
3001;DHT22;1510;51.072;6.678;2022-11-21T16:40:21;7.00;99.90
3001;DHT22;1510;51.072;6.678;2022-11-21T16:42:48;6.80;99.90
3001;DHT22;1510;51.072;6.678;2022-11-21T16:45:18;6.80;99.90
3001;DHT22;1510;51.072;6.678;2022-11-21T16:47:45;6.80;99.90
3001;DHT22;1510;51.072;6.678;2022-11-21T16:50:12;6.70;99.90